sensor_id;sensor_type;location;lat;lon;timestamp;P1;durP1;ratioP1;P2;durP2;ratioP2
46653;SDS011;38960;51.074;17.004;2023-08-01T00:02:17;18.98;;;17.45;;
46653;SDS011;38960;51.074;17.004;2023-08-01T00:04:43;18.70;;;17.23;;
46653;SDS011;38960;51.074;17.004;2023-08-01T00:07:08;18.73;;;17.42;;
46653;SDS011;38960;51.074;17.004;2023-08-01T00:09:34;19.20;;;17.63;;
46653;SDS011;38960;51.074;17.004;2023-08-01T00:11:59;19.00;;;17.50;;
46653;SDS011;38960;51.074;17.004;2023-08-01T00:14:25;19.00;;;17.75;;
46653;SDS011;38960;51.074;17.004;2023-08-01T00:16:50;20.00;;;18.27;;
46653;SDS011;38960;51.074;17.004;2023-08-01T00:19:16;19.13;;;17.50;;
46653;SDS011;38960;51.074;17.004;2023-08-01T00:21:42;18.92;;;17.63;;
46653;SDS011;38960;51.074;17.004;2023-08-01T00:24:07;19.75;;;18.27;;
46653;SDS011;38960;51.074;17.004;2023-08-01T00:26:33;19.90;;;18.38;;
46653;SDS011;38960;51.074;17.004;2023-08-01T00:28:59;19.30;;;17.90;;
46653;SDS011;38960;51.074;17.004;2023-08-01T00:31:25;20.60;;;18.67;;
46653;SDS011;38960;51.074;17.004;2023-08-01T00:33:50;18.92;;;17.40;;
46653;SDS011;38960;51.074;17.004;2023-08-01T00:36:16;19.08;;;17.42;;
46653;SDS011;38960;51.074;17.004;2023-08-01T00:38:41;17.88;;;16.65;;
46653;SDS011;38960;51.074;17.004;2023-08-01T00:41:08;18.40;;;17.10;;
46653;SDS011;38960;51.074;17.004;2023-08-01T00:43:36;18.67;;;17.27;;
46653;SDS011;38960;51.074;17.004;2023-08-01T00:46:03;19.27;;;17.88;;
46653;SDS011;38960;51.074;17.004;2023-08-01T00:48:30;19.13;;;17.67;;
46653;SDS011;38960;51.074;17.004;2023-08-01T00:50:57;18.52;;;17.27;;
46653;SDS011;38960;51.074;17.004;2023-08-01T00:53:23;19.65;;;17.80;;
46653;SDS011;38960;51.074;17.004;2023-08-01T00:55:49;19.30;;;17.42;;
46653;SDS011;38960;51.074;17.004;2023-08-01T00:58:17;18.27;;;17.08;;
46653;SDS011;38960;51.074;17.004;2023-08-01T01:00:43;19.38;;;17.67;;
46653;SDS011;38960;51.074;17.004;2023-08-01T01:03:08;18.25;;;16.95;;
46653;SDS011;38960;51.074;17.004;2023-08-01T01:05:35;18.73;;;17.40;;
46653;SDS011;38960;51.074;17.004;2023-08-01T01:08:02;19.95;;;18.17;;
46653;SDS011;38960;51.074;17.004;2023-08-01T01:10:29;19.27;;;17.75;;
46653;SDS011;38960;51.074;17.004;2023-08-01T01:12:55;18.30;;;17.00;;
46653;SDS011;38960;51.074;17.004;2023-08-01T01:15:20;18.67;;;17.38;;
46653;SDS011;38960;51.074;17.004;2023-08-01T01:17:46;20.33;;;18.75;;
46653;SDS011;38960;51.074;17.004;2023-08-01T01:20:11;19.27;;;17.98;;
46653;SDS011;38960;51.074;17.004;2023-08-01T01:22:37;20.20;;;18.23;;
46653;SDS011;38960;51.074;17.004;2023-08-01T01:25:04;19.98;;;18.35;;
46653;SDS011;38960;51.074;17.004;2023-08-01T01:27:30;18.73;;;17.42;;
46653;SDS011;38960;51.074;17.004;2023-08-01T01:29:56;20.17;;;18.45;;
46653;SDS011;38960;51.074;17.004;2023-08-01T01:32:22;19.98;;;18.23;;
46653;SDS011;38960;51.074;17.004;2023-08-01T01:34:48;18.50;;;17.27;;
46653;SDS011;38960;51.074;17.004;2023-08-01T01:37:13;20.20;;;18.70;;
46653;SDS011;38960;51.074;17.004;2023-08-01T01:39:39;19.52;;;18.20;;
46653;SDS011;38960;51.074;17.004;2023-08-01T01:42:05;19.38;;;17.85;;
46653;SDS011;38960;51.074;17.004;2023-08-01T01:44:31;19.58;;;18.17;;
46653;SDS011;38960;51.074;17.004;2023-08-01T01:46:56;18.58;;;17.13;;
46653;SDS011;38960;51.074;17.004;2023-08-01T01:49:22;18.02;;;16.85;;
46653;SDS011;38960;51.074;17.004;2023-08-01T01:51:47;18.80;;;17.60;;
46653;SDS011;38960;51.074;17.004;2023-08-01T01:54:13;19.38;;;17.98;;
46653;SDS011;38960;51.074;17.004;2023-08-01T01:56:39;18.83;;;17.52;;
46653;SDS011;38960;51.074;17.004;2023-08-01T01:59:04;19.35;;;18.00;;
46653;SDS011;38960;51.074;17.004;2023-08-01T02:01:30;19.90;;;18.33;;
46653;SDS011;38960;51.074;17.004;2023-08-01T02:03:55;19.05;;;17.75;;
46653;SDS011;38960;51.074;17.004;2023-08-01T02:06:21;18.20;;;16.95;;
46653;SDS011;38960;51.074;17.004;2023-08-01T02:08:46;19.33;;;17.83;;
46653;SDS011;38960;51.074;17.004;2023-08-01T02:11:12;19.25;;;17.83;;
46653;SDS011;38960;51.074;17.004;2023-08-01T02:13:37;18.88;;;17.67;;
46653;SDS011;38960;51.074;17.004;2023-08-01T02:16:03;19.35;;;17.95;;
46653;SDS011;38960;51.074;17.004;2023-08-01T02:18:29;20.17;;;18.35;;
46653;SDS011;38960;51.074;17.004;2023-08-01T02:20:54;18.08;;;16.65;;
46653;SDS011;38960;51.074;17.004;2023-08-01T02:23:20;18.67;;;17.48;;
46653;SDS011;38960;51.074;17.004;2023-08-01T02:25:45;20.33;;;18.27;;
46653;SDS011;38960;51.074;17.004;2023-08-01T02:28:11;19.05;;;17.63;;
46653;SDS011;38960;51.074;17.004;2023-08-01T02:30:37;19.08;;;17.42;;
46653;SDS011;38960;51.074;17.004;2023-08-01T02:33:03;19.98;;;18.38;;
46653;SDS011;38960;51.074;17.004;2023-08-01T02:35:29;18.42;;;17.23;;
46653;SDS011;38960;51.074;17.004;2023-08-01T02:37:55;18.88;;;17.67;;
46653;SDS011;38960;51.074;17.004;2023-08-01T02:40:21;18.55;;;17.33;;
46653;SDS011;38960;51.074;17.004;2023-08-01T02:42:46;19.27;;;17.88;;
46653;SDS011;38960;51.074;17.004;2023-08-01T02:45:12;19.05;;;17.75;;
46653;SDS011;38960;51.074;17.004;2023-08-01T02:47:37;19.70;;;18.40;;
46653;SDS011;38960;51.074;17.004;2023-08-01T02:50:03;19.77;;;18.40;;
46653;SDS011;38960;51.074;17.004;2023-08-01T02:52:29;19.38;;;17.90;;
46653;SDS011;38960;51.074;17.004;2023-08-01T02:54:55;17.60;;;16.50;;
46653;SDS011;38960;51.074;17.004;2023-08-01T02:57:20;19.05;;;17.65;;
46653;SDS011;38960;51.074;17.004;2023-08-01T02:59:46;20.23;;;18.83;;
46653;SDS011;38960;51.074;17.004;2023-08-01T03:02:12;19.27;;;17.98;;
46653;SDS011;38960;51.074;17.004;2023-08-01T03:04:37;19.70;;;18.02;;
46653;SDS011;38960;51.074;17.004;2023-08-01T03:07:03;20.63;;;19.02;;
46653;SDS011;38960;51.074;17.004;2023-08-01T03:09:28;19.67;;;18.35;;
46653;SDS011;38960;51.074;17.004;2023-08-01T03:11:54;20.42;;;18.92;;
46653;SDS011;38960;51.074;17.004;2023-08-01T03:14:20;19.83;;;18.33;;
46653;SDS011;38960;51.074;17.004;2023-08-01T03:16:46;19.77;;;18.38;;
46653;SDS011;38960;51.074;17.004;2023-08-01T03:19:11;19.65;;;18.17;;
46653;SDS011;38960;51.074;17.004;2023-08-01T03:21:37;19.35;;;18.08;;
46653;SDS011;38960;51.074;17.004;2023-08-01T03:24:03;20.67;;;19.08;;
46653;SDS011;38960;51.074;17.004;2023-08-01T03:26:29;20.10;;;18.60;;
46653;SDS011;38960;51.074;17.004;2023-08-01T03:28:55;19.25;;;17.83;;
46653;SDS011;38960;51.074;17.004;2023-08-01T03:31:21;19.17;;;17.67;;
46653;SDS011;38960;51.074;17.004;2023-08-01T03:33:47;20.55;;;18.73;;
46653;SDS011;38960;51.074;17.004;2023-08-01T03:36:13;20.15;;;18.55;;
46653;SDS011;38960;51.074;17.004;2023-08-01T03:38:38;20.23;;;18.70;;
46653;SDS011;38960;51.074;17.004;2023-08-01T03:41:04;20.08;;;18.58;;
46653;SDS011;38960;51.074;17.004;2023-08-01T03:43:30;19.48;;;17.95;;
46653;SDS011;38960;51.074;17.004;2023-08-01T03:45:55;18.77;;;17.48;;
46653;SDS011;38960;51.074;17.004;2023-08-01T03:48:21;18.77;;;17.58;;
46653;SDS011;38960;51.074;17.004;2023-08-01T03:50:46;19.73;;;18.33;;
46653;SDS011;38960;51.074;17.004;2023-08-01T03:53:12;19.17;;;17.77;;
46653;SDS011;38960;51.074;17.004;2023-08-01T03:55:37;20.48;;;18.98;;
46653;SDS011;38960;51.074;17.004;2023-08-01T03:58:03;18.77;;;17.48;;
46653;SDS011;38960;51.074;17.004;2023-08-01T04:00:30;18.30;;;17.10;;
46653;SDS011;38960;51.074;17.004;2023-08-01T04:02:59;19.20;;;17.88;;
46653;SDS011;38960;51.074;17.004;2023-08-01T04:05:25;20.42;;;18.85;;
46653;SDS011;38960;51.074;17.004;2023-08-01T04:07:51;19.55;;;18.15;;
46653;SDS011;38960;51.074;17.004;2023-08-01T04:10:20;20.88;;;19.27;;
46653;SDS011;38960;51.074;17.004;2023-08-01T04:12:46;20.27;;;18.88;;
46653;SDS011;38960;51.074;17.004;2023-08-01T04:15:12;20.48;;;19.05;;
46653;SDS011;38960;51.074;17.004;2023-08-01T04:17:37;19.50;;;17.92;;
46653;SDS011;38960;51.074;17.004;2023-08-01T04:20:03;20.02;;;18.63;;
46653;SDS011;38960;51.074;17.004;2023-08-01T04:22:28;20.27;;;18.38;;
46653;SDS011;38960;51.074;17.004;2023-08-01T04:24:54;21.00;;;19.42;;
46653;SDS011;38960;51.074;17.004;2023-08-01T04:27:19;21.20;;;19.05;;
46653;SDS011;38960;51.074;17.004;2023-08-01T04:29:45;21.38;;;19.42;;
46653;SDS011;38960;51.074;17.004;2023-08-01T04:32:11;19.83;;;18.48;;
46653;SDS011;38960;51.074;17.004;2023-08-01T04:34:39;19.40;;;18.10;;
46653;SDS011;38960;51.074;17.004;2023-08-01T04:37:04;19.13;;;17.83;;
46653;SDS011;38960;51.074;17.004;2023-08-01T04:39:30;21.20;;;19.52;;
46653;SDS011;38960;51.074;17.004;2023-08-01T04:41:55;20.10;;;18.55;;
46653;SDS011;38960;51.074;17.004;2023-08-01T04:44:21;20.35;;;18.85;;
46653;SDS011;38960;51.074;17.004;2023-08-01T04:46:47;21.73;;;18.85;;
46653;SDS011;38960;51.074;17.004;2023-08-01T04:49:13;19.27;;;17.80;;
46653;SDS011;38960;51.074;17.004;2023-08-01T04:51:39;20.08;;;18.52;;
46653;SDS011;38960;51.074;17.004;2023-08-01T04:54:04;20.17;;;18.75;;
46653;SDS011;38960;51.074;17.004;2023-08-01T04:56:29;20.67;;;18.50;;
46653;SDS011;38960;51.074;17.004;2023-08-01T04:58:55;19.67;;;18.35;;
46653;SDS011;38960;51.074;17.004;2023-08-01T05:01:20;20.02;;;18.63;;
46653;SDS011;38960;51.074;17.004;2023-08-01T05:03:46;21.15;;;19.65;;
46653;SDS011;38960;51.074;17.004;2023-08-01T05:06:11;20.05;;;18.35;;
46653;SDS011;38960;51.074;17.004;2023-08-01T05:08:37;19.50;;;17.90;;
46653;SDS011;38960;51.074;17.004;2023-08-01T05:11:02;21.25;;;19.30;;
46653;SDS011;38960;51.074;17.004;2023-08-01T05:13:28;22.55;;;20.60;;
46653;SDS011;38960;51.074;17.004;2023-08-01T05:15:53;20.67;;;19.08;;
46653;SDS011;38960;51.074;17.004;2023-08-01T05:18:19;20.77;;;19.27;;
46653;SDS011;38960;51.074;17.004;2023-08-01T05:20:44;20.58;;;19.17;;
46653;SDS011;38960;51.074;17.004;2023-08-01T05:23:10;20.15;;;18.50;;
46653;SDS011;38960;51.074;17.004;2023-08-01T05:25:35;22.20;;;20.40;;
46653;SDS011;38960;51.074;17.004;2023-08-01T05:28:01;22.05;;;20.08;;
46653;SDS011;38960;51.074;17.004;2023-08-01T05:30:26;22.70;;;21.00;;
46653;SDS011;38960;51.074;17.004;2023-08-01T05:32:52;20.88;;;19.42;;
46653;SDS011;38960;51.074;17.004;2023-08-01T05:35:19;21.00;;;19.40;;
46653;SDS011;38960;51.074;17.004;2023-08-01T05:37:45;21.25;;;19.48;;
46653;SDS011;38960;51.074;17.004;2023-08-01T05:40:11;21.02;;;19.40;;
46653;SDS011;38960;51.074;17.004;2023-08-01T05:42:36;20.60;;;19.00;;
46653;SDS011;38960;51.074;17.004;2023-08-01T05:45:02;21.20;;;19.60;;
46653;SDS011;38960;51.074;17.004;2023-08-01T05:47:29;20.65;;;19.15;;
46653;SDS011;38960;51.074;17.004;2023-08-01T05:49:54;20.17;;;18.67;;
46653;SDS011;38960;51.074;17.004;2023-08-01T05:52:20;20.15;;;18.65;;
46653;SDS011;38960;51.074;17.004;2023-08-01T05:54:46;20.48;;;19.08;;
46653;SDS011;38960;51.074;17.004;2023-08-01T05:57:11;21.30;;;19.65;;
46653;SDS011;38960;51.074;17.004;2023-08-01T05:59:37;21.58;;;19.52;;
46653;SDS011;38960;51.074;17.004;2023-08-01T06:02:02;20.77;;;19.10;;
46653;SDS011;38960;51.074;17.004;2023-08-01T06:04:28;21.15;;;19.40;;
46653;SDS011;38960;51.074;17.004;2023-08-01T06:06:53;21.23;;;19.73;;
46653;SDS011;38960;51.074;17.004;2023-08-01T06:09:19;20.92;;;19.30;;
46653;SDS011;38960;51.074;17.004;2023-08-01T06:11:45;21.30;;;19.70;;
46653;SDS011;38960;51.074;17.004;2023-08-01T06:14:10;20.50;;;19.10;;
46653;SDS011;38960;51.074;17.004;2023-08-01T06:16:36;21.63;;;19.75;;
46653;SDS011;38960;51.074;17.004;2023-08-01T06:19:01;20.85;;;19.30;;
46653;SDS011;38960;51.074;17.004;2023-08-01T06:21:27;21.20;;;19.35;;
46653;SDS011;38960;51.074;17.004;2023-08-01T06:23:53;21.13;;;18.98;;
46653;SDS011;38960;51.074;17.004;2023-08-01T06:26:18;20.95;;;19.27;;
46653;SDS011;38960;51.074;17.004;2023-08-01T06:28:44;22.17;;;20.23;;
46653;SDS011;38960;51.074;17.004;2023-08-01T06:31:09;22.13;;;20.02;;
46653;SDS011;38960;51.074;17.004;2023-08-01T06:33:35;20.90;;;19.25;;
46653;SDS011;38960;51.074;17.004;2023-08-01T06:36:00;21.90;;;20.48;;
46653;SDS011;38960;51.074;17.004;2023-08-01T06:38:26;22.00;;;20.10;;
46653;SDS011;38960;51.074;17.004;2023-08-01T06:40:51;19.83;;;18.33;;
46653;SDS011;38960;51.074;17.004;2023-08-01T06:43:17;19.45;;;18.05;;
46653;SDS011;38960;51.074;17.004;2023-08-01T06:45:42;20.98;;;19.45;;
46653;SDS011;38960;51.074;17.004;2023-08-01T06:48:08;20.13;;;18.65;;
46653;SDS011;38960;51.074;17.004;2023-08-01T06:50:34;20.77;;;19.17;;
46653;SDS011;38960;51.074;17.004;2023-08-01T06:53:00;20.23;;;18.63;;
46653;SDS011;38960;51.074;17.004;2023-08-01T06:55:26;21.20;;;19.40;;
46653;SDS011;38960;51.074;17.004;2023-08-01T06:57:52;20.25;;;18.90;;
46653;SDS011;38960;51.074;17.004;2023-08-01T07:00:17;20.15;;;18.70;;
46653;SDS011;38960;51.074;17.004;2023-08-01T07:02:43;20.98;;;19.25;;
46653;SDS011;38960;51.074;17.004;2023-08-01T07:05:08;21.58;;;19.75;;
46653;SDS011;38960;51.074;17.004;2023-08-01T07:07:34;21.63;;;20.00;;
46653;SDS011;38960;51.074;17.004;2023-08-01T07:09:59;21.50;;;19.77;;
46653;SDS011;38960;51.074;17.004;2023-08-01T07:12:25;20.98;;;19.33;;
46653;SDS011;38960;51.074;17.004;2023-08-01T07:14:51;21.90;;;20.20;;
46653;SDS011;38960;51.074;17.004;2023-08-01T07:17:16;21.67;;;19.90;;
46653;SDS011;38960;51.074;17.004;2023-08-01T07:19:42;21.88;;;20.05;;
46653;SDS011;38960;51.074;17.004;2023-08-01T07:22:07;20.88;;;19.38;;
46653;SDS011;38960;51.074;17.004;2023-08-01T07:24:33;21.02;;;19.40;;
46653;SDS011;38960;51.074;17.004;2023-08-01T07:26:58;21.02;;;19.48;;
46653;SDS011;38960;51.074;17.004;2023-08-01T07:29:24;22.23;;;20.42;;
46653;SDS011;38960;51.074;17.004;2023-08-01T07:31:49;21.60;;;19.55;;
46653;SDS011;38960;51.074;17.004;2023-08-01T07:34:15;21.23;;;19.63;;
46653;SDS011;38960;51.074;17.004;2023-08-01T07:36:41;21.05;;;19.35;;
46653;SDS011;38960;51.074;17.004;2023-08-01T07:39:06;21.00;;;19.38;;
46653;SDS011;38960;51.074;17.004;2023-08-01T07:41:32;20.80;;;19.20;;
46653;SDS011;38960;51.074;17.004;2023-08-01T07:44:00;21.10;;;19.52;;
46653;SDS011;38960;51.074;17.004;2023-08-01T07:46:27;21.85;;;19.75;;
46653;SDS011;38960;51.074;17.004;2023-08-01T07:48:52;21.02;;;19.42;;
46653;SDS011;38960;51.074;17.004;2023-08-01T07:51:19;21.85;;;20.25;;
46653;SDS011;38960;51.074;17.004;2023-08-01T07:53:44;21.02;;;19.30;;
46653;SDS011;38960;51.074;17.004;2023-08-01T07:56:10;21.65;;;19.75;;
46653;SDS011;38960;51.074;17.004;2023-08-01T07:58:35;20.98;;;19.38;;
46653;SDS011;38960;51.074;17.004;2023-08-01T08:01:04;22.13;;;20.08;;
46653;SDS011;38960;51.074;17.004;2023-08-01T08:03:31;22.85;;;20.95;;
46653;SDS011;38960;51.074;17.004;2023-08-01T08:05:57;21.30;;;19.55;;
46653;SDS011;38960;51.074;17.004;2023-08-01T08:08:23;21.10;;;19.50;;
46653;SDS011;38960;51.074;17.004;2023-08-01T08:10:48;22.05;;;20.20;;
46653;SDS011;38960;51.074;17.004;2023-08-01T08:13:14;21.02;;;19.52;;
46653;SDS011;38960;51.074;17.004;2023-08-01T08:15:40;20.42;;;19.05;;
46653;SDS011;38960;51.074;17.004;2023-08-01T08:18:06;21.92;;;20.02;;
46653;SDS011;38960;51.074;17.004;2023-08-01T08:20:34;21.42;;;19.75;;
46653;SDS011;38960;51.074;17.004;2023-08-01T08:23:05;21.08;;;19.50;;
46653;SDS011;38960;51.074;17.004;2023-08-01T08:25:31;21.02;;;19.13;;
46653;SDS011;38960;51.074;17.004;2023-08-01T08:27:56;21.23;;;19.30;;
46653;SDS011;38960;51.074;17.004;2023-08-01T08:30:22;21.65;;;19.77;;
46653;SDS011;38960;51.074;17.004;2023-08-01T08:32:47;20.85;;;19.35;;
46653;SDS011;38960;51.074;17.004;2023-08-01T08:35:13;20.33;;;18.92;;
46653;SDS011;38960;51.074;17.004;2023-08-01T08:37:38;20.48;;;19.15;;
46653;SDS011;38960;51.074;17.004;2023-08-01T08:40:04;20.58;;;18.95;;
46653;SDS011;38960;51.074;17.004;2023-08-01T08:42:32;20.30;;;18.90;;
46653;SDS011;38960;51.074;17.004;2023-08-01T08:44:59;21.17;;;19.67;;
46653;SDS011;38960;51.074;17.004;2023-08-01T08:47:26;21.80;;;19.85;;
46653;SDS011;38960;51.074;17.004;2023-08-01T08:49:55;20.73;;;19.13;;
46653;SDS011;38960;51.074;17.004;2023-08-01T08:52:24;20.13;;;18.75;;
46653;SDS011;38960;51.074;17.004;2023-08-01T08:54:51;20.40;;;19.08;;
46653;SDS011;38960;51.074;17.004;2023-08-01T08:57:17;22.00;;;20.15;;
46653;SDS011;38960;51.074;17.004;2023-08-01T08:59:46;21.27;;;19.73;;
46653;SDS011;38960;51.074;17.004;2023-08-01T09:02:12;20.63;;;19.13;;
46653;SDS011;38960;51.074;17.004;2023-08-01T09:04:39;21.05;;;19.35;;
46653;SDS011;38960;51.074;17.004;2023-08-01T09:07:07;21.05;;;19.45;;
46653;SDS011;38960;51.074;17.004;2023-08-01T09:09:34;20.77;;;19.13;;
46653;SDS011;38960;51.074;17.004;2023-08-01T09:11:59;20.40;;;18.98;;
46653;SDS011;38960;51.074;17.004;2023-08-01T09:14:25;21.45;;;19.65;;
46653;SDS011;38960;51.074;17.004;2023-08-01T09:16:50;22.83;;;21.10;;
46653;SDS011;38960;51.074;17.004;2023-08-01T09:19:17;21.85;;;19.98;;
46653;SDS011;38960;51.074;17.004;2023-08-01T09:21:46;20.80;;;19.23;;
46653;SDS011;38960;51.074;17.004;2023-08-01T09:24:17;20.02;;;18.63;;
46653;SDS011;38960;51.074;17.004;2023-08-01T09:26:43;20.07;;;18.50;;
46653;SDS011;38960;51.074;17.004;2023-08-01T09:29:10;21.15;;;19.23;;
46653;SDS011;38960;51.074;17.004;2023-08-01T09:31:36;21.67;;;19.90;;
46653;SDS011;38960;51.074;17.004;2023-08-01T09:34:05;20.45;;;18.83;;
46653;SDS011;38960;51.074;17.004;2023-08-01T09:36:42;20.42;;;18.92;;
46653;SDS011;38960;51.074;17.004;2023-08-01T09:39:08;20.73;;;19.13;;
46653;SDS011;38960;51.074;17.004;2023-08-01T09:41:33;20.70;;;19.08;;
46653;SDS011;38960;51.074;17.004;2023-08-01T09:43:59;20.80;;;19.38;;
46653;SDS011;38960;51.074;17.004;2023-08-01T09:46:24;21.02;;;19.58;;
46653;SDS011;38960;51.074;17.004;2023-08-01T09:48:50;19.75;;;18.42;;
46653;SDS011;38960;51.074;17.004;2023-08-01T09:51:16;21.83;;;20.08;;
46653;SDS011;38960;51.074;17.004;2023-08-01T09:53:46;21.15;;;19.75;;
46653;SDS011;38960;51.074;17.004;2023-08-01T09:56:18;21.25;;;19.85;;
46653;SDS011;38960;51.074;17.004;2023-08-01T09:58:49;19.90;;;18.40;;
46653;SDS011;38960;51.074;17.004;2023-08-01T10:01:16;19.92;;;18.52;;
46653;SDS011;38960;51.074;17.004;2023-08-01T10:03:44;19.90;;;18.40;;
46653;SDS011;38960;51.074;17.004;2023-08-01T10:08:45;19.83;;;18.40;;
46653;SDS011;38960;51.074;17.004;2023-08-01T10:11:13;19.73;;;18.33;;
46653;SDS011;38960;51.074;17.004;2023-08-01T10:13:41;19.85;;;18.25;;
46653;SDS011;38960;51.074;17.004;2023-08-01T10:16:07;18.52;;;17.10;;
46653;SDS011;38960;51.074;17.004;2023-08-01T10:18:33;20.13;;;18.83;;
46653;SDS011;38960;51.074;17.004;2023-08-01T10:20:59;20.15;;;18.65;;
46653;SDS011;38960;51.074;17.004;2023-08-01T10:23:25;19.88;;;18.42;;
46653;SDS011;38960;51.074;17.004;2023-08-01T10:25:51;19.98;;;18.55;;
46653;SDS011;38960;51.074;17.004;2023-08-01T10:28:18;20.50;;;18.63;;
46653;SDS011;38960;51.074;17.004;2023-08-01T10:30:43;20.80;;;19.20;;
46653;SDS011;38960;51.074;17.004;2023-08-01T10:33:10;20.67;;;18.63;;
46653;SDS011;38960;51.074;17.004;2023-08-01T10:35:38;20.75;;;18.98;;
46653;SDS011;38960;51.074;17.004;2023-08-01T10:38:08;20.27;;;18.40;;
46653;SDS011;38960;51.074;17.004;2023-08-01T10:40:36;21.08;;;19.17;;
46653;SDS011;38960;51.074;17.004;2023-08-01T10:43:18;19.73;;;18.48;;
46653;SDS011;38960;51.074;17.004;2023-08-01T10:45:45;19.77;;;18.48;;
46653;SDS011;38960;51.074;17.004;2023-08-01T10:48:11;20.48;;;18.60;;
46653;SDS011;38960;51.074;17.004;2023-08-01T10:50:37;20.90;;;18.98;;
46653;SDS011;38960;51.074;17.004;2023-08-01T10:53:03;20.20;;;18.25;;
46653;SDS011;38960;51.074;17.004;2023-08-01T10:55:40;19.08;;;17.70;;
46653;SDS011;38960;51.074;17.004;2023-08-01T10:58:06;19.25;;;17.95;;
46653;SDS011;38960;51.074;17.004;2023-08-01T11:00:32;20.27;;;18.48;;
46653;SDS011;38960;51.074;17.004;2023-08-01T11:02:57;18.70;;;17.40;;
46653;SDS011;38960;51.074;17.004;2023-08-01T11:05:23;18.77;;;17.48;;
46653;SDS011;38960;51.074;17.004;2023-08-01T11:07:56;18.77;;;17.48;;
46653;SDS011;38960;51.074;17.004;2023-08-01T11:10:26;19.50;;;18.20;;
46653;SDS011;38960;51.074;17.004;2023-08-01T11:12:52;18.88;;;17.50;;
46653;SDS011;38960;51.074;17.004;2023-08-01T11:15:18;18.70;;;17.20;;
46653;SDS011;38960;51.074;17.004;2023-08-01T11:17:48;18.30;;;17.10;;
46653;SDS011;38960;51.074;17.004;2023-08-01T11:20:15;21.63;;;19.80;;
46653;SDS011;38960;51.074;17.004;2023-08-01T11:25:40;19.80;;;18.15;;
46653;SDS011;38960;51.074;17.004;2023-08-01T11:28:08;19.52;;;18.25;;
46653;SDS011;38960;51.074;17.004;2023-08-01T11:30:39;20.02;;;18.60;;
46653;SDS011;38960;51.074;17.004;2023-08-01T11:33:18;19.92;;;18.20;;
46653;SDS011;38960;51.074;17.004;2023-08-01T11:35:50;19.45;;;17.90;;
46653;SDS011;38960;51.074;17.004;2023-08-01T11:38:25;19.40;;;17.90;;
46653;SDS011;38960;51.074;17.004;2023-08-01T11:40:52;19.13;;;17.77;;
46653;SDS011;38960;51.074;17.004;2023-08-01T11:43:17;19.08;;;17.88;;
46653;SDS011;38960;51.074;17.004;2023-08-01T11:46:16;20.20;;;18.90;;
46653;SDS011;38960;51.074;17.004;2023-08-01T11:48:35;19.67;;;18.13;;
46653;SDS011;38960;51.074;17.004;2023-08-01T11:51:01;19.15;;;17.85;;
46653;SDS011;38960;51.074;17.004;2023-08-01T11:53:27;19.25;;;17.85;;
46653;SDS011;38960;51.074;17.004;2023-08-01T11:55:53;20.05;;;18.48;;
46653;SDS011;38960;51.074;17.004;2023-08-01T11:58:34;19.10;;;17.90;;
46653;SDS011;38960;51.074;17.004;2023-08-01T12:01:08;19.10;;;17.70;;
46653;SDS011;38960;51.074;17.004;2023-08-01T12:03:51;19.60;;;18.33;;
46653;SDS011;38960;51.074;17.004;2023-08-01T12:06:18;19.05;;;17.83;;
46653;SDS011;38960;51.074;17.004;2023-08-01T12:08:45;19.92;;;18.63;;
46653;SDS011;38960;51.074;17.004;2023-08-01T12:11:21;19.70;;;18.50;;
46653;SDS011;38960;51.074;17.004;2023-08-01T12:13:48;19.98;;;18.70;;
46653;SDS011;38960;51.074;17.004;2023-08-01T12:16:36;20.73;;;19.40;;
46653;SDS011;38960;51.074;17.004;2023-08-01T12:19:03;19.50;;;18.30;;
46653;SDS011;38960;51.074;17.004;2023-08-01T12:21:29;19.70;;;18.50;;
46653;SDS011;38960;51.074;17.004;2023-08-01T12:23:56;20.63;;;19.20;;
46653;SDS011;38960;51.074;17.004;2023-08-01T12:26:22;20.08;;;18.75;;
46653;SDS011;38960;51.074;17.004;2023-08-01T12:28:48;16.42;;;15.43;;
46653;SDS011;38960;51.074;17.004;2023-08-01T12:31:17;18.60;;;17.38;;
46653;SDS011;38960;51.074;17.004;2023-08-01T12:33:46;20.65;;;19.13;;
46653;SDS011;38960;51.074;17.004;2023-08-01T12:36:12;20.63;;;19.25;;
46653;SDS011;38960;51.074;17.004;2023-08-01T12:38:38;19.48;;;18.20;;
46653;SDS011;38960;51.074;17.004;2023-08-01T12:41:03;19.45;;;18.25;;
46653;SDS011;38960;51.074;17.004;2023-08-01T12:43:29;21.02;;;19.55;;
46653;SDS011;38960;51.074;17.004;2023-08-01T12:45:55;21.65;;;20.13;;
46653;SDS011;38960;51.074;17.004;2023-08-01T12:48:24;25.75;;;23.20;;
46653;SDS011;38960;51.074;17.004;2023-08-01T12:50:50;25.00;;;22.48;;
46653;SDS011;38960;51.074;17.004;2023-08-01T12:53:15;24.00;;;21.98;;
46653;SDS011;38960;51.074;17.004;2023-08-01T12:55:44;21.02;;;19.58;;
46653;SDS011;38960;51.074;17.004;2023-08-01T12:58:10;23.92;;;22.00;;
46653;SDS011;38960;51.074;17.004;2023-08-01T13:00:36;21.05;;;19.55;;
46653;SDS011;38960;51.074;17.004;2023-08-01T13:03:02;20.55;;;19.02;;
46653;SDS011;38960;51.074;17.004;2023-08-01T13:05:28;21.80;;;20.23;;
46653;SDS011;38960;51.074;17.004;2023-08-01T13:07:53;20.02;;;18.80;;
46653;SDS011;38960;51.074;17.004;2023-08-01T13:10:18;20.10;;;18.80;;
46653;SDS011;38960;51.074;17.004;2023-08-01T13:12:44;19.95;;;18.65;;
46653;SDS011;38960;51.074;17.004;2023-08-01T13:15:10;20.65;;;19.25;;
46653;SDS011;38960;51.074;17.004;2023-08-01T13:17:35;19.42;;;18.13;;
46653;SDS011;38960;51.074;17.004;2023-08-01T13:20:01;19.45;;;18.10;;
46653;SDS011;38960;51.074;17.004;2023-08-01T13:22:26;20.10;;;18.70;;
46653;SDS011;38960;51.074;17.004;2023-08-01T13:24:52;20.40;;;19.10;;
46653;SDS011;38960;51.074;17.004;2023-08-01T13:27:17;19.85;;;18.42;;
46653;SDS011;38960;51.074;17.004;2023-08-01T13:29:42;19.40;;;18.17;;
46653;SDS011;38960;51.074;17.004;2023-08-01T13:32:08;18.83;;;17.58;;
46653;SDS011;38960;51.074;17.004;2023-08-01T13:34:33;20.23;;;18.55;;
46653;SDS011;38960;51.074;17.004;2023-08-01T13:36:59;19.60;;;18.30;;
46653;SDS011;38960;51.074;17.004;2023-08-01T13:39:24;18.88;;;17.50;;
46653;SDS011;38960;51.074;17.004;2023-08-01T13:41:50;19.50;;;18.13;;
46653;SDS011;38960;51.074;17.004;2023-08-01T13:44:16;19.75;;;18.45;;
46653;SDS011;38960;51.074;17.004;2023-08-01T13:46:41;19.77;;;18.48;;
46653;SDS011;38960;51.074;17.004;2023-08-01T13:49:07;19.80;;;18.50;;
46653;SDS011;38960;51.074;17.004;2023-08-01T13:51:33;21.70;;;18.30;;
46653;SDS011;38960;51.074;17.004;2023-08-01T13:53:59;20.30;;;19.00;;
46653;SDS011;38960;51.074;17.004;2023-08-01T13:56:24;19.35;;;18.15;;
46653;SDS011;38960;51.074;17.004;2023-08-01T13:58:50;18.80;;;17.60;;
46653;SDS011;38960;51.074;17.004;2023-08-01T14:01:16;19.77;;;18.40;;
46653;SDS011;38960;51.074;17.004;2023-08-01T14:03:44;19.75;;;18.45;;
46653;SDS011;38960;51.074;17.004;2023-08-01T14:06:13;19.77;;;18.48;;
46653;SDS011;38960;51.074;17.004;2023-08-01T14:08:39;19.23;;;17.98;;
46653;SDS011;38960;51.074;17.004;2023-08-01T14:11:07;20.48;;;18.98;;